sensor_id;sensor_type;location;lat;lon;timestamp;temperature;humidity
34574;DHT22;20809;49.594;8.734;2023-07-22T00:02:13;17.10;99.90
34574;DHT22;20809;49.594;8.734;2023-07-22T00:05:15;17.20;99.90
34574;DHT22;20809;49.594;8.734;2023-07-22T00:08:17;17.10;99.90
34574;DHT22;20809;49.594;8.734;2023-07-22T00:11:19;17.20;99.90
34574;DHT22;20809;49.594;8.734;2023-07-22T00:14:21;17.20;99.90
34574;DHT22;20809;49.594;8.734;2023-07-22T00:17:22;17.10;99.90
34574;DHT22;20809;49.594;8.734;2023-07-22T00:20:25;17.10;99.90
34574;DHT22;20809;49.594;8.734;2023-07-22T00:23:27;17.10;99.90
34574;DHT22;20809;49.594;8.734;2023-07-22T00:26:29;17.10;99.90
34574;DHT22;20809;49.594;8.734;2023-07-22T00:29:31;17.10;99.90
34574;DHT22;20809;49.594;8.734;2023-07-22T00:32:33;17.10;99.90
34574;DHT22;20809;49.594;8.734;2023-07-22T00:35:37;17.10;99.90
34574;DHT22;20809;49.594;8.734;2023-07-22T00:38:38;17.10;99.90
34574;DHT22;20809;49.594;8.734;2023-07-22T00:41:41;17.10;99.90
34574;DHT22;20809;49.594;8.734;2023-07-22T00:44:45;17.00;99.90
34574;DHT22;20809;49.594;8.734;2023-07-22T00:47:50;17.00;99.90
34574;DHT22;20809;49.594;8.734;2023-07-22T00:50:52;16.90;99.90
34574;DHT22;20809;49.594;8.734;2023-07-22T00:53:54;16.70;99.90
34574;DHT22;20809;49.594;8.734;2023-07-22T00:59:09;16.40;99.90
34574;DHT22;20809;49.594;8.734;2023-07-22T01:02:11;16.20;99.90
34574;DHT22;20809;49.594;8.734;2023-07-22T01:05:14;16.20;99.90
34574;DHT22;20809;49.594;8.734;2023-07-22T01:08:16;16.10;99.90
34574;DHT22;20809;49.594;8.734;2023-07-22T01:11:17;16.00;99.90
34574;DHT22;20809;49.594;8.734;2023-07-22T01:14:19;16.00;99.90
34574;DHT22;20809;49.594;8.734;2023-07-22T01:17:22;16.00;99.90
34574;DHT22;20809;49.594;8.734;2023-07-22T01:20:24;16.00;99.90
34574;DHT22;20809;49.594;8.734;2023-07-22T01:23:26;16.00;99.90
34574;DHT22;20809;49.594;8.734;2023-07-22T01:26:28;15.80;99.90
34574;DHT22;20809;49.594;8.734;2023-07-22T01:29:30;15.60;99.90
34574;DHT22;20809;49.594;8.734;2023-07-22T01:32:31;15.60;99.90
34574;DHT22;20809;49.594;8.734;2023-07-22T01:35:34;15.60;99.90
34574;DHT22;20809;49.594;8.734;2023-07-22T01:38:36;15.70;99.90
34574;DHT22;20809;49.594;8.734;2023-07-22T01:41:38;15.80;99.90
34574;DHT22;20809;49.594;8.734;2023-07-22T01:44:43;15.80;99.90
34574;DHT22;20809;49.594;8.734;2023-07-22T01:47:45;15.80;99.90
34574;DHT22;20809;49.594;8.734;2023-07-22T01:50:47;15.80;99.90
34574;DHT22;20809;49.594;8.734;2023-07-22T01:53:49;15.80;99.90
34574;DHT22;20809;49.594;8.734;2023-07-22T01:56:52;15.80;99.90
34574;DHT22;20809;49.594;8.734;2023-07-22T01:59:54;15.80;99.90
34574;DHT22;20809;49.594;8.734;2023-07-22T02:02:56;15.90;99.90
34574;DHT22;20809;49.594;8.734;2023-07-22T02:06:02;15.90;99.90
34574;DHT22;20809;49.594;8.734;2023-07-22T02:09:04;15.80;99.90
34574;DHT22;20809;49.594;8.734;2023-07-22T02:12:09;15.70;99.90
34574;DHT22;20809;49.594;8.734;2023-07-22T02:15:12;15.80;99.90
34574;DHT22;20809;49.594;8.734;2023-07-22T02:18:17;15.80;99.90
34574;DHT22;20809;49.594;8.734;2023-07-22T02:21:19;15.80;99.90
34574;DHT22;20809;49.594;8.734;2023-07-22T02:24:21;15.70;99.90
34574;DHT22;20809;49.594;8.734;2023-07-22T02:27:23;15.70;99.90
34574;DHT22;20809;49.594;8.734;2023-07-22T02:30:25;15.70;99.90
34574;DHT22;20809;49.594;8.734;2023-07-22T02:33:27;15.60;99.90
34574;DHT22;20809;49.594;8.734;2023-07-22T02:36:29;15.70;99.90
34574;DHT22;20809;49.594;8.734;2023-07-22T02:39:31;15.80;99.90
34574;DHT22;20809;49.594;8.734;2023-07-22T02:42:34;15.80;99.90
34574;DHT22;20809;49.594;8.734;2023-07-22T02:45:40;15.80;99.90
34574;DHT22;20809;49.594;8.734;2023-07-22T02:48:42;15.90;99.90
34574;DHT22;20809;49.594;8.734;2023-07-22T02:51:44;15.90;99.90
34574;DHT22;20809;49.594;8.734;2023-07-22T02:55:11;15.80;99.90
34574;DHT22;20809;49.594;8.734;2023-07-22T02:58:16;15.80;99.90
34574;DHT22;20809;49.594;8.734;2023-07-22T03:01:17;15.70;99.90
34574;DHT22;20809;49.594;8.734;2023-07-22T03:04:23;15.80;99.90
34574;DHT22;20809;49.594;8.734;2023-07-22T03:07:25;15.80;99.90
34574;DHT22;20809;49.594;8.734;2023-07-22T03:10:29;15.80;99.90
34574;DHT22;20809;49.594;8.734;2023-07-22T03:13:31;15.70;99.90
34574;DHT22;20809;49.594;8.734;2023-07-22T03:16:34;15.70;99.90
34574;DHT22;20809;49.594;8.734;2023-07-22T03:19:36;15.70;99.90
34574;DHT22;20809;49.594;8.734;2023-07-22T03:22:38;15.60;99.90
34574;DHT22;20809;49.594;8.734;2023-07-22T03:25:39;15.60;99.90
34574;DHT22;20809;49.594;8.734;2023-07-22T03:28:42;15.50;99.90
34574;DHT22;20809;49.594;8.734;2023-07-22T03:31:44;15.40;99.90
34574;DHT22;20809;49.594;8.734;2023-07-22T03:34:46;15.40;99.90
34574;DHT22;20809;49.594;8.734;2023-07-22T03:37:48;15.40;99.90
34574;DHT22;20809;49.594;8.734;2023-07-22T03:40:49;15.40;99.90
34574;DHT22;20809;49.594;8.734;2023-07-22T03:43:51;15.40;99.90
34574;DHT22;20809;49.594;8.734;2023-07-22T03:46:54;15.40;99.90
34574;DHT22;20809;49.594;8.734;2023-07-22T03:49:56;15.40;99.90
34574;DHT22;20809;49.594;8.734;2023-07-22T03:52:59;15.40;99.90
34574;DHT22;20809;49.594;8.734;2023-07-22T03:56:04;15.40;99.90
34574;DHT22;20809;49.594;8.734;2023-07-22T03:59:07;15.50;99.90
34574;DHT22;20809;49.594;8.734;2023-07-22T04:02:09;15.40;99.90
34574;DHT22;20809;49.594;8.734;2023-07-22T04:05:11;15.40;99.90
34574;DHT22;20809;49.594;8.734;2023-07-22T04:08:15;15.30;99.90
34574;DHT22;20809;49.594;8.734;2023-07-22T04:11:16;15.20;99.90
34574;DHT22;20809;49.594;8.734;2023-07-22T04:14:16;15.20;99.90
34574;DHT22;20809;49.594;8.734;2023-07-22T04:17:17;15.40;99.90
34574;DHT22;20809;49.594;8.734;2023-07-22T04:20:18;15.50;99.90
34574;DHT22;20809;49.594;8.734;2023-07-22T04:23:19;15.60;99.90
34574;DHT22;20809;49.594;8.734;2023-07-22T04:26:20;15.80;99.90
34574;DHT22;20809;49.594;8.734;2023-07-22T04:29:20;16.00;99.90
34574;DHT22;20809;49.594;8.734;2023-07-22T04:32:21;16.20;99.90
34574;DHT22;20809;49.594;8.734;2023-07-22T04:35:22;16.40;99.90
34574;DHT22;20809;49.594;8.734;2023-07-22T04:38:23;16.40;99.90
34574;DHT22;20809;49.594;8.734;2023-07-22T04:41:24;16.40;99.90
34574;DHT22;20809;49.594;8.734;2023-07-22T04:44:25;16.40;99.90
34574;DHT22;20809;49.594;8.734;2023-07-22T04:47:26;16.30;99.90
34574;DHT22;20809;49.594;8.734;2023-07-22T04:50:28;16.30;99.90
34574;DHT22;20809;49.594;8.734;2023-07-22T04:53:29;16.30;99.90
34574;DHT22;20809;49.594;8.734;2023-07-22T04:56:30;16.30;99.90
34574;DHT22;20809;49.594;8.734;2023-07-22T04:59:31;16.30;99.90
34574;DHT22;20809;49.594;8.734;2023-07-22T05:02:32;16.20;99.90
34574;DHT22;20809;49.594;8.734;2023-07-22T05:05:33;16.30;99.90
34574;DHT22;20809;49.594;8.734;2023-07-22T05:08:34;16.40;99.90
34574;DHT22;20809;49.594;8.734;2023-07-22T05:11:35;16.50;99.90
34574;DHT22;20809;49.594;8.734;2023-07-22T05:14:36;16.70;99.90
34574;DHT22;20809;49.594;8.734;2023-07-22T05:17:37;16.90;99.90
34574;DHT22;20809;49.594;8.734;2023-07-22T05:20:38;17.00;99.90
34574;DHT22;20809;49.594;8.734;2023-07-22T05:23:39;17.20;99.90
34574;DHT22;20809;49.594;8.734;2023-07-22T05:26:40;17.30;99.90
34574;DHT22;20809;49.594;8.734;2023-07-22T05:29:41;17.30;99.90
34574;DHT22;20809;49.594;8.734;2023-07-22T05:32:42;17.30;99.90
34574;DHT22;20809;49.594;8.734;2023-07-22T05:35:43;17.20;99.90
34574;DHT22;20809;49.594;8.734;2023-07-22T05:38:44;17.10;99.90
34574;DHT22;20809;49.594;8.734;2023-07-22T05:41:45;16.90;99.90
34574;DHT22;20809;49.594;8.734;2023-07-22T05:44:46;17.00;99.90
34574;DHT22;20809;49.594;8.734;2023-07-22T05:47:47;17.10;99.90
34574;DHT22;20809;49.594;8.734;2023-07-22T05:50:50;17.60;99.90
34574;DHT22;20809;49.594;8.734;2023-07-22T05:53:52;17.90;99.90
34574;DHT22;20809;49.594;8.734;2023-07-22T05:56:53;18.10;99.90
34574;DHT22;20809;49.594;8.734;2023-07-22T05:59:54;18.40;99.90
34574;DHT22;20809;49.594;8.734;2023-07-22T06:02:54;18.80;99.90
34574;DHT22;20809;49.594;8.734;2023-07-22T06:05:55;19.20;99.90
34574;DHT22;20809;49.594;8.734;2023-07-22T06:08:56;19.50;99.90
34574;DHT22;20809;49.594;8.734;2023-07-22T06:11:57;19.70;99.90
34574;DHT22;20809;49.594;8.734;2023-07-22T06:14:58;20.10;99.90
34574;DHT22;20809;49.594;8.734;2023-07-22T06:17:59;20.50;99.90
34574;DHT22;20809;49.594;8.734;2023-07-22T06:21:01;20.90;99.90
34574;DHT22;20809;49.594;8.734;2023-07-22T06:24:01;21.00;99.90
34574;DHT22;20809;49.594;8.734;2023-07-22T06:27:03;21.00;99.90
34574;DHT22;20809;49.594;8.734;2023-07-22T06:30:04;20.80;99.90
34574;DHT22;20809;49.594;8.734;2023-07-22T06:33:06;20.50;99.90
34574;DHT22;20809;49.594;8.734;2023-07-22T06:36:07;20.10;99.90
34574;DHT22;20809;49.594;8.734;2023-07-22T06:39:07;19.90;99.90
34574;DHT22;20809;49.594;8.734;2023-07-22T06:42:09;19.90;99.90
34574;DHT22;20809;49.594;8.734;2023-07-22T06:45:10;20.20;99.90
34574;DHT22;20809;49.594;8.734;2023-07-22T06:48:11;20.80;99.90
34574;DHT22;20809;49.594;8.734;2023-07-22T06:51:12;21.40;99.90
34574;DHT22;20809;49.594;8.734;2023-07-22T06:54:13;22.00;99.90
34574;DHT22;20809;49.594;8.734;2023-07-22T06:57:13;22.30;99.90
34574;DHT22;20809;49.594;8.734;2023-07-22T07:00:15;22.40;99.90
34574;DHT22;20809;49.594;8.734;2023-07-22T07:03:15;22.40;99.90
34574;DHT22;20809;49.594;8.734;2023-07-22T07:06:16;22.30;99.90
34574;DHT22;20809;49.594;8.734;2023-07-22T07:09:17;22.20;99.90
34574;DHT22;20809;49.594;8.734;2023-07-22T07:12:18;22.30;99.90
34574;DHT22;20809;49.594;8.734;2023-07-22T07:15:19;22.50;99.90
34574;DHT22;20809;49.594;8.734;2023-07-22T07:18:20;22.80;99.90
34574;DHT22;20809;49.594;8.734;2023-07-22T07:21:24;23.10;99.90
34574;DHT22;20809;49.594;8.734;2023-07-22T07:24:25;23.30;99.90
34574;DHT22;20809;49.594;8.734;2023-07-22T07:27:27;23.40;99.90
34574;DHT22;20809;49.594;8.734;2023-07-22T07:30:28;23.50;99.90
34574;DHT22;20809;49.594;8.734;2023-07-22T07:33:29;23.90;99.90
34574;DHT22;20809;49.594;8.734;2023-07-22T07:36:31;24.40;99.90
34574;DHT22;20809;49.594;8.734;2023-07-22T07:39:31;24.70;99.90
34574;DHT22;20809;49.594;8.734;2023-07-22T07:42:32;24.90;99.90
34574;DHT22;20809;49.594;8.734;2023-07-22T07:45:33;24.80;99.90
34574;DHT22;20809;49.594;8.734;2023-07-22T07:48:34;24.80;99.90
34574;DHT22;20809;49.594;8.734;2023-07-22T07:51:35;24.80;99.90
34574;DHT22;20809;49.594;8.734;2023-07-22T07:54:36;24.90;99.90
34574;DHT22;20809;49.594;8.734;2023-07-22T07:57:39;25.00;99.90
34574;DHT22;20809;49.594;8.734;2023-07-22T08:00:40;25.00;99.90
34574;DHT22;20809;49.594;8.734;2023-07-22T08:03:42;24.90;99.90
34574;DHT22;20809;49.594;8.734;2023-07-22T08:06:43;24.70;99.90
34574;DHT22;20809;49.594;8.734;2023-07-22T08:09:47;24.50;99.90
34574;DHT22;20809;49.594;8.734;2023-07-22T08:12:51;24.50;99.90
34574;DHT22;20809;49.594;8.734;2023-07-22T08:15:55;24.70;99.90
34574;DHT22;20809;49.594;8.734;2023-07-22T08:18:56;25.10;99.90
34574;DHT22;20809;49.594;8.734;2023-07-22T08:21:56;25.50;99.90
34574;DHT22;20809;49.594;8.734;2023-07-22T08:24:57;25.80;99.90
34574;DHT22;20809;49.594;8.734;2023-07-22T08:27:58;26.00;99.90
34574;DHT22;20809;49.594;8.734;2023-07-22T08:30:59;25.90;99.90
34574;DHT22;20809;49.594;8.734;2023-07-22T08:34:01;25.60;99.90
34574;DHT22;20809;49.594;8.734;2023-07-22T08:37:02;25.50;99.90
34574;DHT22;20809;49.594;8.734;2023-07-22T08:40:03;25.30;99.90
34574;DHT22;20809;49.594;8.734;2023-07-22T08:43:10;25.20;99.90
34574;DHT22;20809;49.594;8.734;2023-07-22T08:46:13;25.30;99.90
34574;DHT22;20809;49.594;8.734;2023-07-22T08:49:15;25.20;99.90
34574;DHT22;20809;49.594;8.734;2023-07-22T08:52:17;25.90;99.90
34574;DHT22;20809;49.594;8.734;2023-07-22T08:55:19;26.70;99.90
34574;DHT22;20809;49.594;8.734;2023-07-22T08:58:20;27.20;99.90
34574;DHT22;20809;49.594;8.734;2023-07-22T09:01:22;27.70;99.90
34574;DHT22;20809;49.594;8.734;2023-07-22T09:04:24;27.40;99.90
34574;DHT22;20809;49.594;8.734;2023-07-22T09:07:24;27.20;99.90
34574;DHT22;20809;49.594;8.734;2023-07-22T09:10:27;27.30;99.90
34574;DHT22;20809;49.594;8.734;2023-07-22T09:13:28;28.00;99.90
34574;DHT22;20809;49.594;8.734;2023-07-22T09:16:30;28.70;99.90
34574;DHT22;20809;49.594;8.734;2023-07-22T09:19:31;28.40;99.90
34574;DHT22;20809;49.594;8.734;2023-07-22T09:22:32;28.00;99.90
34574;DHT22;20809;49.594;8.734;2023-07-22T09:25:33;27.60;99.90
34574;DHT22;20809;49.594;8.734;2023-07-22T09:28:55;27.60;99.20
34574;DHT22;20809;49.594;8.734;2023-07-22T09:31:56;27.50;98.40
34574;DHT22;20809;49.594;8.734;2023-07-22T09:34:57;27.40;97.30
34574;DHT22;20809;49.594;8.734;2023-07-22T09:37:59;26.90;97.20
34574;DHT22;20809;49.594;8.734;2023-07-22T09:41:00;27.30;96.80
34574;DHT22;20809;49.594;8.734;2023-07-22T09:44:03;27.40;96.30
34574;DHT22;20809;49.594;8.734;2023-07-22T09:47:07;27.50;95.40
34574;DHT22;20809;49.594;8.734;2023-07-22T09:50:15;27.20;95.60
34574;DHT22;20809;49.594;8.734;2023-07-22T09:53:17;27.40;95.70
34574;DHT22;20809;49.594;8.734;2023-07-22T09:56:18;27.70;94.30
34574;DHT22;20809;49.594;8.734;2023-07-22T09:59:19;27.60;94.70
34574;DHT22;20809;49.594;8.734;2023-07-22T10:02:22;27.60;94.70
34574;DHT22;20809;49.594;8.734;2023-07-22T10:05:24;27.70;94.40
34574;DHT22;20809;49.594;8.734;2023-07-22T10:08:26;28.00;94.10
34574;DHT22;20809;49.594;8.734;2023-07-22T10:11:30;28.00;92.60
34574;DHT22;20809;49.594;8.734;2023-07-22T10:14:32;28.50;92.50
34574;DHT22;20809;49.594;8.734;2023-07-22T10:17:34;29.10;91.70
34574;DHT22;20809;49.594;8.734;2023-07-22T10:20:36;29.10;90.90
34574;DHT22;20809;49.594;8.734;2023-07-22T10:23:38;29.10;90.20
34574;DHT22;20809;49.594;8.734;2023-07-22T10:26:40;29.30;90.20
34574;DHT22;20809;49.594;8.734;2023-07-22T10:29:41;29.50;87.90
34574;DHT22;20809;49.594;8.734;2023-07-22T10:32:50;29.30;87.90
34574;DHT22;20809;49.594;8.734;2023-07-22T10:36:08;29.30;86.10
34574;DHT22;20809;49.594;8.734;2023-07-22T10:39:09;29.20;86.10
34574;DHT22;20809;49.594;8.734;2023-07-22T10:42:24;28.50;86.10
34574;DHT22;20809;49.594;8.734;2023-07-22T10:45:28;27.70;88.30
34574;DHT22;20809;49.594;8.734;2023-07-22T10:48:35;27.40;89.90
34574;DHT22;20809;49.594;8.734;2023-07-22T10:51:38;27.20;90.30
34574;DHT22;20809;49.594;8.734;2023-07-22T10:54:39;27.10;90.70
34574;DHT22;20809;49.594;8.734;2023-07-22T10:57:49;27.00;90.80
34574;DHT22;20809;49.594;8.734;2023-07-22T11:00:50;27.20;91.00
34574;DHT22;20809;49.594;8.734;2023-07-22T11:07:07;27.70;90.10
34574;DHT22;20809;49.594;8.734;2023-07-22T11:10:16;28.00;90.00
34574;DHT22;20809;49.594;8.734;2023-07-22T11:13:17;28.30;90.10
34574;DHT22;20809;49.594;8.734;2023-07-22T11:16:17;28.50;89.30
34574;DHT22;20809;49.594;8.734;2023-07-22T11:19:23;28.10;89.70
34574;DHT22;20809;49.594;8.734;2023-07-22T11:22:24;27.30;90.40
34574;DHT22;20809;49.594;8.734;2023-07-22T11:25:25;26.80;90.30
34574;DHT22;20809;49.594;8.734;2023-07-22T11:28:27;26.40;90.80
34574;DHT22;20809;49.594;8.734;2023-07-22T11:31:38;26.30;91.40
34574;DHT22;20809;49.594;8.734;2023-07-22T11:34:46;26.50;91.80
34574;DHT22;20809;49.594;8.734;2023-07-22T11:37:46;27.20;91.40
34574;DHT22;20809;49.594;8.734;2023-07-22T11:40:47;27.90;90.10
34574;DHT22;20809;49.594;8.734;2023-07-22T11:43:48;28.50;88.80
34574;DHT22;20809;49.594;8.734;2023-07-22T11:46:55;28.60;87.60
34574;DHT22;20809;49.594;8.734;2023-07-22T11:49:56;28.40;84.80
34574;DHT22;20809;49.594;8.734;2023-07-22T11:52:58;28.50;85.80
34574;DHT22;20809;49.594;8.734;2023-07-22T11:55:59;29.10;85.70
34574;DHT22;20809;49.594;8.734;2023-07-22T11:59:01;29.30;85.00
34574;DHT22;20809;49.594;8.734;2023-07-22T12:02:02;29.30;83.90
34574;DHT22;20809;49.594;8.734;2023-07-22T12:05:06;28.70;84.90
34574;DHT22;20809;49.594;8.734;2023-07-22T12:08:07;28.20;85.20
34574;DHT22;20809;49.594;8.734;2023-07-22T12:11:19;27.60;86.20
34574;DHT22;20809;49.594;8.734;2023-07-22T12:14:20;27.20;87.00
34574;DHT22;20809;49.594;8.734;2023-07-22T12:17:21;27.10;87.80
34574;DHT22;20809;49.594;8.734;2023-07-22T12:20:27;26.70;89.30
34574;DHT22;20809;49.594;8.734;2023-07-22T12:23:28;26.50;90.10
34574;DHT22;20809;49.594;8.734;2023-07-22T12:26:28;26.20;90.30
34574;DHT22;20809;49.594;8.734;2023-07-22T12:29:29;25.90;90.70
34574;DHT22;20809;49.594;8.734;2023-07-22T12:32:31;25.90;90.90
34574;DHT22;20809;49.594;8.734;2023-07-22T12:35:32;26.50;90.50
34574;DHT22;20809;49.594;8.734;2023-07-22T12:38:33;27.20;88.90
34574;DHT22;20809;49.594;8.734;2023-07-22T12:41:34;27.60;86.50
34574;DHT22;20809;49.594;8.734;2023-07-22T12:44:34;28.10;86.00
34574;DHT22;20809;49.594;8.734;2023-07-22T12:47:36;28.20;85.80
34574;DHT22;20809;49.594;8.734;2023-07-22T12:50:37;28.40;85.30
34574;DHT22;20809;49.594;8.734;2023-07-22T12:53:38;28.60;83.70
34574;DHT22;20809;49.594;8.734;2023-07-22T12:56:39;28.70;82.60
34574;DHT22;20809;49.594;8.734;2023-07-22T12:59:39;28.20;82.90
34574;DHT22;20809;49.594;8.734;2023-07-22T13:02:41;28.00;83.60
34574;DHT22;20809;49.594;8.734;2023-07-22T13:05:42;28.00;84.10
34574;DHT22;20809;49.594;8.734;2023-07-22T13:08:42;28.40;84.00
34574;DHT22;20809;49.594;8.734;2023-07-22T13:11:43;28.70;84.20
34574;DHT22;20809;49.594;8.734;2023-07-22T13:14:45;29.10;82.60
34574;DHT22;20809;49.594;8.734;2023-07-22T13:17:46;29.20;80.70
34574;DHT22;20809;49.594;8.734;2023-07-22T13:20:47;29.30;78.80
34574;DHT22;20809;49.594;8.734;2023-07-22T13:23:47;29.10;79.10
34574;DHT22;20809;49.594;8.734;2023-07-22T13:26:49;28.80;79.50
34574;DHT22;20809;49.594;8.734;2023-07-22T13:29:50;29.00;79.10
34574;DHT22;20809;49.594;8.734;2023-07-22T13:32:50;29.40;79.20
34574;DHT22;20809;49.594;8.734;2023-07-22T13:35:53;29.50;76.00
34574;DHT22;20809;49.594;8.734;2023-07-22T13:38:54;29.80;76.80
34574;DHT22;20809;49.594;8.734;2023-07-22T13:41:55;29.20;73.70
34574;DHT22;20809;49.594;8.734;2023-07-22T13:44:55;28.80;74.40
34574;DHT22;20809;49.594;8.734;2023-07-22T13:47:56;28.70;72.20
34574;DHT22;20809;49.594;8.734;2023-07-22T13:50:57;28.70;72.80
34574;DHT22;20809;49.594;8.734;2023-07-22T13:54:00;28.60;71.50
34574;DHT22;20809;49.594;8.734;2023-07-22T13:57:01;28.20;72.10
34574;DHT22;20809;49.594;8.734;2023-07-22T14:00:02;28.20;72.40
34574;DHT22;20809;49.594;8.734;2023-07-22T14:03:09;28.30;72.10
34574;DHT22;20809;49.594;8.734;2023-07-22T14:06:09;28.20;72.20
34574;DHT22;20809;49.594;8.734;2023-07-22T14:09:10;28.70;70.40
34574;DHT22;20809;49.594;8.734;2023-07-22T14:12:11;28.90;69.30
34574;DHT22;20809;49.594;8.734;2023-07-22T14:15:12;28.50;70.10
34574;DHT22;20809;49.594;8.734;2023-07-22T14:18:13;28.70;70.10
34574;DHT22;20809;49.594;8.734;2023-07-22T14:21:17;29.10;70.50
34574;DHT22;20809;49.594;8.734;2023-07-22T14:24:18;29.70;69.50
34574;DHT22;20809;49.594;8.734;2023-07-22T14:27:19;29.50;67.50
34574;DHT22;20809;49.594;8.734;2023-07-22T14:30:19;29.10;67.40
34574;DHT22;20809;49.594;8.734;2023-07-22T14:33:20;28.60;68.80
34574;DHT22;20809;49.594;8.734;2023-07-22T14:36:21;28.40;69.50
34574;DHT22;20809;49.594;8.734;2023-07-22T14:39:21;28.50;69.60
34574;DHT22;20809;49.594;8.734;2023-07-22T14:42:22;28.70;69.70
34574;DHT22;20809;49.594;8.734;2023-07-22T14:45:23;28.70;70.10
34574;DHT22;20809;49.594;8.734;2023-07-22T14:48:23;28.50;70.20
34574;DHT22;20809;49.594;8.734;2023-07-22T14:51:24;28.10;70.30
34574;DHT22;20809;49.594;8.734;2023-07-22T14:54:25;28.00;70.70
34574;DHT22;20809;49.594;8.734;2023-07-22T14:57:26;28.20;70.90
34574;DHT22;20809;49.594;8.734;2023-07-22T15:00:29;28.40;70.80
34574;DHT22;20809;49.594;8.734;2023-07-22T15:03:30;28.40;69.40
34574;DHT22;20809;49.594;8.734;2023-07-22T15:06:31;28.10;69.40
34574;DHT22;20809;49.594;8.734;2023-07-22T15:09:31;27.90;71.00
34574;DHT22;20809;49.594;8.734;2023-07-22T15:12:32;27.80;70.80
34574;DHT22;20809;49.594;8.734;2023-07-22T15:15:33;28.10;71.70
34574;DHT22;20809;49.594;8.734;2023-07-22T15:18:34;28.30;70.50
34574;DHT22;20809;49.594;8.734;2023-07-22T15:21:34;28.00;70.30
34574;DHT22;20809;49.594;8.734;2023-07-22T15:24:35;27.90;72.00
34574;DHT22;20809;49.594;8.734;2023-07-22T15:27:36;27.90;71.60
34574;DHT22;20809;49.594;8.734;2023-07-22T15:30:36;27.90;71.90
34574;DHT22;20809;49.594;8.734;2023-07-22T15:33:37;27.80;71.50
34574;DHT22;20809;49.594;8.734;2023-07-22T15:36:38;27.80;72.40
34574;DHT22;20809;49.594;8.734;2023-07-22T15:39:39;27.80;70.60
34574;DHT22;20809;49.594;8.734;2023-07-22T15:42:40;27.80;71.00
34574;DHT22;20809;49.594;8.734;2023-07-22T15:45:44;27.70;71.40
34574;DHT22;20809;49.594;8.734;2023-07-22T15:48:44;27.50;71.70
34574;DHT22;20809;49.594;8.734;2023-07-22T15:51:45;27.70;71.10
34574;DHT22;20809;49.594;8.734;2023-07-22T15:54:46;28.00;70.20
34574;DHT22;20809;49.594;8.734;2023-07-22T15:57:47;27.60;70.20
34574;DHT22;20809;49.594;8.734;2023-07-22T16:00:47;27.60;71.00
34574;DHT22;20809;49.594;8.734;2023-07-22T16:03:48;27.60;70.90
34574;DHT22;20809;49.594;8.734;2023-07-22T16:06:49;27.50;71.10
34574;DHT22;20809;49.594;8.734;2023-07-22T16:09:49;27.30;70.90
34574;DHT22;20809;49.594;8.734;2023-07-22T16:12:50;27.00;72.30
34574;DHT22;20809;49.594;8.734;2023-07-22T16:15:51;27.20;72.20
34574;DHT22;20809;49.594;8.734;2023-07-22T16:18:52;27.40;72.80
34574;DHT22;20809;49.594;8.734;2023-07-22T16:21:54;27.60;71.80
34574;DHT22;20809;49.594;8.734;2023-07-22T16:24:54;27.60;71.10
34574;DHT22;20809;49.594;8.734;2023-07-22T16:27:55;27.70;70.20
34574;DHT22;20809;49.594;8.734;2023-07-22T16:30:56;27.60;70.10
34574;DHT22;20809;49.594;8.734;2023-07-22T16:33:57;27.60;70.90
34574;DHT22;20809;49.594;8.734;2023-07-22T16:37:00;27.20;70.80
34574;DHT22;20809;49.594;8.734;2023-07-22T16:40:00;26.70;71.60
34574;DHT22;20809;49.594;8.734;2023-07-22T16:43:01;26.80;71.60
34574;DHT22;20809;49.594;8.734;2023-07-22T16:46:02;26.90;72.00
34574;DHT22;20809;49.594;8.734;2023-07-22T16:49:03;26.80;72.60
34574;DHT22;20809;49.594;8.734;2023-07-22T16:52:04;26.60;72.00
34574;DHT22;20809;49.594;8.734;2023-07-22T16:55:05;26.30;72.10
34574;DHT22;20809;49.594;8.734;2023-07-22T16:58:07;25.90;72.60
34574;DHT22;20809;49.594;8.734;2023-07-22T17:01:08;25.90;72.80
34574;DHT22;20809;49.594;8.734;2023-07-22T17:04:09;25.80;73.10
34574;DHT22;20809;49.594;8.734;2023-07-22T17:07:12;25.80;73.20
34574;DHT22;20809;49.594;8.734;2023-07-22T17:10:15;26.10;73.00
34574;DHT22;20809;49.594;8.734;2023-07-22T17:13:16;26.60;71.90
34574;DHT22;20809;49.594;8.734;2023-07-22T17:16:16;26.60;71.10
34574;DHT22;20809;49.594;8.734;2023-07-22T17:19:17;26.30;72.00
34574;DHT22;20809;49.594;8.734;2023-07-22T17:22:18;26.00;72.70
34574;DHT22;20809;49.594;8.734;2023-07-22T17:25:19;25.90;73.70
34574;DHT22;20809;49.594;8.734;2023-07-22T17:28:19;26.30;72.40
34574;DHT22;20809;49.594;8.734;2023-07-22T17:31:20;26.70;71.70
34574;DHT22;20809;49.594;8.734;2023-07-22T17:34:21;27.00;70.90
34574;DHT22;20809;49.594;8.734;2023-07-22T17:37:22;27.00;70.70
34574;DHT22;20809;49.594;8.734;2023-07-22T17:40:23;27.20;70.60
34574;DHT22;20809;49.594;8.734;2023-07-22T17:43:26;26.90;71.20
34574;DHT22;20809;49.594;8.734;2023-07-22T17:46:26;26.50;72.80
34574;DHT22;20809;49.594;8.734;2023-07-22T17:49:27;26.00;73.20
34574;DHT22;20809;49.594;8.734;2023-07-22T17:52:28;25.60;73.60
34574;DHT22;20809;49.594;8.734;2023-07-22T17:55:29;25.40;73.70
34574;DHT22;20809;49.594;8.734;2023-07-22T17:58:30;25.40;74.10
34574;DHT22;20809;49.594;8.734;2023-07-22T18:01:31;25.20;74.20
34574;DHT22;20809;49.594;8.734;2023-07-22T18:04:32;25.10;74.60
34574;DHT22;20809;49.594;8.734;2023-07-22T18:07:34;25.00;74.50
34574;DHT22;20809;49.594;8.734;2023-07-22T18:10:35;24.90;74.60
34574;DHT22;20809;49.594;8.734;2023-07-22T18:13:36;24.80;74.90
34574;DHT22;20809;49.594;8.734;2023-07-22T18:16:37;24.80;75.60
34574;DHT22;20809;49.594;8.734;2023-07-22T18:19:38;24.70;75.10
34574;DHT22;20809;49.594;8.734;2023-07-22T18:22:39;24.60;75.40
34574;DHT22;20809;49.594;8.734;2023-07-22T18:25:40;24.50;75.80
34574;DHT22;20809;49.594;8.734;2023-07-22T18:28:41;24.30;76.60
34574;DHT22;20809;49.594;8.734;2023-07-22T18:31:41;24.20;76.70
34574;DHT22;20809;49.594;8.734;2023-07-22T18:34:42;24.00;77.10
34574;DHT22;20809;49.594;8.734;2023-07-22T18:37:45;23.80;77.20
34574;DHT22;20809;49.594;8.734;2023-07-22T18:40:47;23.70;77.40
34574;DHT22;20809;49.594;8.734;2023-07-22T18:43:48;23.60;78.00
34574;DHT22;20809;49.594;8.734;2023-07-22T18:46:48;23.50;78.60
34574;DHT22;20809;49.594;8.734;2023-07-22T18:49:49;23.40;78.60
34574;DHT22;20809;49.594;8.734;2023-07-22T18:52:50;23.20;78.70
34574;DHT22;20809;49.594;8.734;2023-07-22T18:55:51;23.10;79.00
34574;DHT22;20809;49.594;8.734;2023-07-22T18:58:51;23.00;79.30
34574;DHT22;20809;49.594;8.734;2023-07-22T19:01:53;22.80;80.10
34574;DHT22;20809;49.594;8.734;2023-07-22T19:04:54;22.70;80.10
34574;DHT22;20809;49.594;8.734;2023-07-22T19:07:56;22.50;80.60
34574;DHT22;20809;49.594;8.734;2023-07-22T19:10:59;22.40;81.10
34574;DHT22;20809;49.594;8.734;2023-07-22T19:14:06;22.30;81.70